UTAM

Details ICAO UTAM (MYP)
Name MARY
Region Tajikistan, Turkmenistan and Uzbekistan
Timezone Asia/Ashgabat (UTC+5.0)
Plans Departing 23
Arriving 22
Stats Elevation 728 ft / 222 m (AMSL)
Location 37.619500° 61.896800°
Runways 2
Magnetic Variation 4.726° E
Sunrise 2019-05-19 00:41:42 UTC / 2019-05-19 05:41:42 Local
Sunset 2019-05-19 14:58:51 UTC / 2019-05-19 19:58:51 Local
Advertisement - Login to hide

Runways

ID Width Length Bearing (true/mag) Surface Threshold Overrun Markings Lighting
18L 147 ft / 45 m 9,126 ft / 2,782 m 178.49° / 173.76° CONCRETE 0 ft / 0 m 0 ft / 0 m APP EDGE THRESHOLD ALSF-I
18R 98 ft / 30 m 8,011 ft / 2,442 m 178.28° / 173.55° CONCRETE 0 ft / 0 m 0 ft / 0 m APP EDGE THRESHOLD
36L 98 ft / 30 m 8,011 ft / 2,442 m 358.28° / 353.55° CONCRETE 0 ft / 0 m 0 ft / 0 m APP EDGE THRESHOLD MALS
36R 147 ft / 45 m 9,126 ft / 2,782 m 358.49° / 353.76° CONCRETE 0 ft / 0 m 0 ft / 0 m APP EDGE THRESHOLD ALSF-I

Map

Weather


0- 5 10 15 20 25 30 35+ Temperature / °C

Clouds and Precipitation
Forecast for 2019-05-19 06:00 UTC. Updated 3 hours ago

Ground ~20,000 ft ~40,000 ft Winds

METAR

UTAM 190600Z 14006KT CAVOK 28/11 Q1013 NOSIG

TAF

TAF UTAM 190430Z 1906/2006 12016KT CAVOK 530009 TEMPO 1906/1915 17012G22KT 5000 SCT030 BECMG 1915/1916 07012KT 5000 NSC BECMG 2003/2004 15016KT

Frequencies

Tower 122.20 MHz
Approach 124.00 MHz RADAR
Warning: Do not use this data for real-world aviation or navigation. No guarantee of current accuracy is given.